createdAt,value
2022-08-01T00:00:02.501Z,16.42
2022-08-01T00:02:29.690Z,16.42
2022-08-01T00:04:56.270Z,16.44
2022-08-01T00:07:22.983Z,16.45
2022-08-01T00:09:49.759Z,16.46
2022-08-01T00:12:16.300Z,16.45
2022-08-01T00:14:42.841Z,16.48
2022-08-01T00:17:09.466Z,16.51
2022-08-01T00:19:36.073Z,16.51
2022-08-01T00:22:02.809Z,16.48
2022-08-01T00:24:29.672Z,16.47
2022-08-01T00:26:56.254Z,16.46
2022-08-01T00:30:12.477Z,16.45
2022-08-01T00:32:09.514Z,16.41
2022-08-01T00:34:36.429Z,16.42
2022-08-01T00:37:03.014Z,16.44
2022-08-01T00:39:29.557Z,16.49
2022-08-01T00:42:01.710Z,16.48
2022-08-01T00:44:28.357Z,16.50
2022-08-01T00:46:55.086Z,16.53
2022-08-01T00:49:21.872Z,16.48
2022-08-01T00:51:49.331Z,16.48
2022-08-01T00:54:17.066Z,16.50
2022-08-01T00:56:44.627Z,16.51
2022-08-01T00:59:14.965Z,16.50
2022-08-01T01:01:46.464Z,16.47
2022-08-01T01:04:14.059Z,16.50
2022-08-01T01:06:54.265Z,16.50
2022-08-01T01:09:40.520Z,16.48
2022-08-01T01:12:25.465Z,16.45
2022-08-01T01:15:09.265Z,16.42
2022-08-01T01:17:51.830Z,16.32
2022-08-01T01:20:21.866Z,16.30
2022-08-01T01:22:54.215Z,16.24
2022-08-01T01:26:05.521Z,16.24
2022-08-01T01:28:42.595Z,16.22
2022-08-01T01:31:12.952Z,16.22
2022-08-01T01:33:47.193Z,16.23
2022-08-01T01:36:16.640Z,16.30
2022-08-01T01:38:45.267Z,16.30
2022-08-01T01:41:13.994Z,16.36
2022-08-01T01:43:41.237Z,16.38
2022-08-01T01:46:10.096Z,16.43
2022-08-01T01:48:38.543Z,16.40
2022-08-01T01:51:06.428Z,16.40
2022-08-01T01:53:35.384Z,16.45
2022-08-01T01:56:04.042Z,16.45
2022-08-01T01:58:33.977Z,16.41
2022-08-01T02:01:03.586Z,16.40
2022-08-01T02:03:32.218Z,16.41
2022-08-01T02:06:00.804Z,16.44
2022-08-01T02:08:29.475Z,16.44
2022-08-01T02:11:18.619Z,16.45
2022-08-01T02:13:48.100Z,16.38
2022-08-01T02:16:16.333Z,16.38
2022-08-01T02:18:43.362Z,16.41
2022-08-01T02:21:13.192Z,16.33
2022-08-01T02:23:41.315Z,16.24
2022-08-01T02:26:19.206Z,16.17
2022-08-01T02:28:51.965Z,16.22
2022-08-01T02:31:21.601Z,16.17
2022-08-01T02:34:06.613Z,16.10
2022-08-01T02:36:36.463Z,16.14
2022-08-01T02:39:09.257Z,16.18
2022-08-01T02:41:41.959Z,16.18
2022-08-01T02:44:11.966Z,16.20
2022-08-01T02:46:42.407Z,16.21
2022-08-01T02:49:11.441Z,16.18
2022-08-01T02:51:39.932Z,16.15
2022-08-01T02:54:09.081Z,16.24
2022-08-01T02:56:37.300Z,16.29
2022-08-01T02:59:10.425Z,16.27
2022-08-01T03:01:42.062Z,16.25
2022-08-01T03:04:11.250Z,16.20
2022-08-01T03:06:39.316Z,16.22
2022-08-01T03:09:07.780Z,16.28
2022-08-01T03:11:38.162Z,16.29
2022-08-01T03:14:10.183Z,16.38
2022-08-01T03:16:39.072Z,16.40
2022-08-01T03:19:08.178Z,16.41
2022-08-01T03:21:35.551Z,16.38
2022-08-01T03:24:04.241Z,16.36
2022-08-01T03:26:34.867Z,16.33
2022-08-01T03:29:09.110Z,16.38
2022-08-01T03:31:37.516Z,16.40
2022-08-01T03:34:05.994Z,16.40
2022-08-01T03:36:37.452Z,16.46
2022-08-01T03:39:07.857Z,16.49
2022-08-01T03:41:41.772Z,16.50
2022-08-01T03:44:16.432Z,16.45
2022-08-01T03:46:53.008Z,16.43
2022-08-01T03:49:23.899Z,16.43
2022-08-01T03:51:52.308Z,16.43
2022-08-01T03:54:24.643Z,16.42
2022-08-01T03:56:52.830Z,16.41
2022-08-01T03:59:21.619Z,16.39
2022-08-01T04:01:49.039Z,16.39
2022-08-01T04:04:15.901Z,16.42
2022-08-01T04:06:45.568Z,16.43
2022-08-01T04:09:13.877Z,16.47
2022-08-01T04:11:41.952Z,16.49
2022-08-01T04:14:09.391Z,16.49
2022-08-01T04:16:36.322Z,16.46
2022-08-01T04:19:03.023Z,16.48
2022-08-01T04:21:33.475Z,16.52
2022-08-01T04:24:05.988Z,16.51
2022-08-01T04:26:35.934Z,16.53
2022-08-01T04:29:06.049Z,16.57
2022-08-01T04:31:33.744Z,16.58
2022-08-01T04:34:02.898Z,16.60
2022-08-01T04:36:32.068Z,16.60
2022-08-01T04:39:02.347Z,16.58
2022-08-01T04:41:31.358Z,16.60
2022-08-01T04:44:00.311Z,16.60
2022-08-01T04:46:29.575Z,16.63
2022-08-01T04:48:57.382Z,16.65
2022-08-01T04:51:24.034Z,16.66
2022-08-01T04:53:52.167Z,16.70
2022-08-01T04:56:22.181Z,16.76
2022-08-01T04:58:48.924Z,16.77
2022-08-01T05:01:15.625Z,16.81
2022-08-01T05:03:42.298Z,16.82
2022-08-01T05:06:09.094Z,16.86
2022-08-01T05:08:37.320Z,16.92
2022-08-01T05:11:04.234Z,16.95
2022-08-01T05:13:31.496Z,17.00
2022-08-01T05:15:58.036Z,17.03
2022-08-01T05:18:26.134Z,17.04
2022-08-01T05:20:54.866Z,17.05
2022-08-01T05:23:42.579Z,17.09
2022-08-01T05:26:08.392Z,17.13
2022-08-01T05:28:36.166Z,17.18
2022-08-01T05:31:03.454Z,17.21
2022-08-01T05:33:30.088Z,17.27
2022-08-01T05:35:56.601Z,17.30
2022-08-01T05:38:23.166Z,17.38
2022-08-01T05:40:49.762Z,17.42
2022-08-01T05:43:16.363Z,17.46
2022-08-01T05:45:42.997Z,17.50
2022-08-01T05:48:09.523Z,17.49
2022-08-01T05:50:36.098Z,17.52
2022-08-01T05:53:02.680Z,17.54
2022-08-01T05:55:29.585Z,17.56
2022-08-01T05:57:56.649Z,17.59
2022-08-01T06:00:23.296Z,17.64
2022-08-01T06:02:50.077Z,17.69
2022-08-01T06:05:16.769Z,17.70
2022-08-01T06:07:43.444Z,17.72
2022-08-01T06:10:10.297Z,17.77
2022-08-01T06:12:37.603Z,17.83
2022-08-01T06:15:05.628Z,17.85
2022-08-01T06:17:32.271Z,17.87
2022-08-01T06:19:58.872Z,17.88
2022-08-01T06:22:25.694Z,17.93
2022-08-01T06:24:52.731Z,17.95
2022-08-01T06:27:21.975Z,17.98
2022-08-01T06:29:51.093Z,18.01
2022-08-01T06:32:26.444Z,18.05
2022-08-01T06:34:55.532Z,18.06
2022-08-01T06:37:22.741Z,18.09
2022-08-01T06:39:50.538Z,18.14
2022-08-01T06:42:17.802Z,18.14
2022-08-01T06:44:44.341Z,18.15
2022-08-01T06:47:10.927Z,18.16
2022-08-01T06:49:37.605Z,18.16
2022-08-01T06:52:05.043Z,18.18
2022-08-01T06:54:31.840Z,18.17
2022-08-01T06:56:58.450Z,18.13
2022-08-01T06:59:24.974Z,18.13
2022-08-01T07:01:51.517Z,18.15
2022-08-01T07:04:18.162Z,18.15
2022-08-01T07:06:44.710Z,18.18
2022-08-01T07:09:14.354Z,18.18
2022-08-01T07:11:42.061Z,18.18
2022-08-01T07:14:09.111Z,18.16
2022-08-01T07:16:36.052Z,18.20
2022-08-01T07:19:02.726Z,18.21
2022-08-01T07:21:39.914Z,18.22
2022-08-01T07:24:14.576Z,18.22
2022-08-01T07:26:52.671Z,18.23
2022-08-01T07:29:20.805Z,18.17
2022-08-01T07:31:47.362Z,18.16
2022-08-01T07:34:13.877Z,18.15
2022-08-01T07:36:40.393Z,18.17
2022-08-01T07:39:06.902Z,18.15
2022-08-01T07:41:45.533Z,18.14
2022-08-01T07:44:19.995Z,18.15
2022-08-01T07:46:46.540Z,18.11
2022-08-01T07:49:13.181Z,18.09
2022-08-01T07:51:39.993Z,18.10
2022-08-01T07:54:06.701Z,18.12
2022-08-01T07:56:33.238Z,18.09
2022-08-01T07:58:59.767Z,18.12
2022-08-01T08:01:26.527Z,18.10
2022-08-01T08:03:53.097Z,18.12
2022-08-01T08:06:19.729Z,18.13
2022-08-01T08:08:46.262Z,18.17
2022-08-01T08:11:12.766Z,18.20
2022-08-01T08:13:39.316Z,18.23
2022-08-01T08:16:05.847Z,18.30
2022-08-01T08:18:32.365Z,18.37
2022-08-01T08:21:00.490Z,18.39
2022-08-01T08:23:48.385Z,18.39
2022-08-01T08:26:14.953Z,18.45
2022-08-01T08:28:41.613Z,18.49
2022-08-01T08:31:25.049Z,18.58
2022-08-01T08:33:56.070Z,18.65
2022-08-01T08:36:22.618Z,18.67
2022-08-01T08:38:58.548Z,18.72
2022-08-01T08:41:25.133Z,18.79
2022-08-01T08:43:51.790Z,18.86
2022-08-01T08:46:28.146Z,18.92
2022-08-01T08:48:56.884Z,18.98
2022-08-01T08:51:28.025Z,19.05
2022-08-01T08:53:58.389Z,19.09
2022-08-01T08:56:28.332Z,19.18
2022-08-01T08:58:55.408Z,19.31
2022-08-01T09:01:23.018Z,19.46
2022-08-01T09:03:49.874Z,19.54
2022-08-01T09:06:16.481Z,19.61
2022-08-01T09:08:43.111Z,19.67
2022-08-01T09:11:09.774Z,19.70
2022-08-01T09:13:36.456Z,19.73
2022-08-01T09:16:03.138Z,19.80
2022-08-01T09:18:43.782Z,19.86
2022-08-01T09:21:17.921Z,19.99
2022-08-01T09:23:53.253Z,20.01
2022-08-01T09:26:41.769Z,20.07
2022-08-01T09:29:17.703Z,20.18
2022-08-01T09:32:07.293Z,20.23
2022-08-01T09:34:34.102Z,20.25
2022-08-01T09:37:03.574Z,20.25
2022-08-01T09:39:30.007Z,20.28
2022-08-01T09:41:59.635Z,20.32
2022-08-01T09:44:54.582Z,20.33
2022-08-01T09:47:23.947Z,20.39
2022-08-01T09:49:59.309Z,20.41
2022-08-01T09:52:28.934Z,20.41
2022-08-01T09:54:59.454Z,20.42
2022-08-01T09:57:27.071Z,20.50
2022-08-01T09:59:59.097Z,20.53
2022-08-01T10:02:34.789Z,20.55
2022-08-01T10:05:08.287Z,20.58
2022-08-01T10:07:43.575Z,20.64
2022-08-01T10:10:16.514Z,20.66
2022-08-01T10:12:45.163Z,20.67
2022-08-01T10:15:15.864Z,20.69
2022-08-01T10:17:57.339Z,20.71
2022-08-01T10:20:32.429Z,20.74
2022-08-01T10:23:05.986Z,20.78
2022-08-01T10:25:43.827Z,20.81
2022-08-01T10:28:23.946Z,20.78
2022-08-01T10:30:53.235Z,20.86
2022-08-01T10:33:50.584Z,20.96
2022-08-01T10:36:10.640Z,21.03
2022-08-01T10:38:37.646Z,21.13
2022-08-01T10:41:08.554Z,21.19
2022-08-01T10:43:35.817Z,21.26
2022-08-01T10:46:05.046Z,21.32
2022-08-01T10:48:48.074Z,21.37
2022-08-01T10:51:17.816Z,21.45
2022-08-01T10:54:06.841Z,21.56
2022-08-01T10:56:48.953Z,21.63
2022-08-01T10:59:50.385Z,21.67
2022-08-01T11:02:09.366Z,21.69
2022-08-01T11:04:41.845Z,21.77
2022-08-01T11:07:25.718Z,21.75
2022-08-01T11:10:16.110Z,21.72
2022-08-01T11:12:44.293Z,21.70
2022-08-01T11:15:10.954Z,21.76
2022-08-01T11:17:45.243Z,21.80
2022-08-01T11:20:19.413Z,21.88
2022-08-01T11:23:02.198Z,22.02
2022-08-01T11:26:05.813Z,22.06
2022-08-01T11:28:32.402Z,22.10
2022-08-01T11:31:14.304Z,22.13
2022-08-01T11:33:41.360Z,22.20
2022-08-01T11:36:11.040Z,22.18
2022-08-01T11:38:48.908Z,22.26
2022-08-01T11:41:15.385Z,22.33
2022-08-01T11:44:01.499Z,22.33
2022-08-01T11:46:46.910Z,22.34
2022-08-01T11:49:33.686Z,22.39
2022-08-01T11:52:25.328Z,22.50
2022-08-01T11:55:16.623Z,22.61
2022-08-01T11:57:43.425Z,22.67
2022-08-01T12:00:18.903Z,22.77
2022-08-01T12:02:59.039Z,22.92
2022-08-01T12:05:27.435Z,23.02
2022-08-01T12:07:56.267Z,23.01
2022-08-01T12:10:24.338Z,22.98
2022-08-01T12:12:56.461Z,22.97
2022-08-01T12:15:25.101Z,22.92
2022-08-01T12:17:59.751Z,22.94
2022-08-01T12:20:32.010Z,22.93
2022-08-01T12:23:01.056Z,22.88
2022-08-01T12:25:27.766Z,22.90
2022-08-01T12:27:56.613Z,22.92
2022-08-01T12:30:25.442Z,23.06
2022-08-01T12:32:54.032Z,23.14
2022-08-01T12:35:24.319Z,23.17
2022-08-01T12:37:57.003Z,23.12
2022-08-01T12:40:24.563Z,23.07
2022-08-01T12:42:53.385Z,23.00
2022-08-01T12:45:22.402Z,22.93
2022-08-01T12:47:49.664Z,22.94
2022-08-01T12:50:20.751Z,22.92
2022-08-01T12:52:48.398Z,22.89
2022-08-01T12:55:16.343Z,22.90
2022-08-01T12:57:45.629Z,22.95
2022-08-01T13:00:16.142Z,22.99
2022-08-01T13:02:43.554Z,23.05
2022-08-01T13:05:11.235Z,23.09
2022-08-01T13:07:45.579Z,23.10
2022-08-01T13:10:14.085Z,23.04
2022-08-01T13:12:42.294Z,23.06
2022-08-01T13:15:19.612Z,23.19
2022-08-01T13:17:46.266Z,23.26
2022-08-01T13:20:25.999Z,23.28
2022-08-01T13:22:52.905Z,23.30
2022-08-01T13:25:22.650Z,23.31
2022-08-01T13:27:53.786Z,23.31
2022-08-01T13:30:21.386Z,23.48
2022-08-01T13:33:00.526Z,23.62
2022-08-01T13:35:28.600Z,23.68
2022-08-01T13:37:55.743Z,23.78
2022-08-01T13:40:27.952Z,23.92
2022-08-01T13:42:57.558Z,24.08
2022-08-01T13:45:24.645Z,24.17
2022-08-01T13:48:11.704Z,24.16
2022-08-01T13:50:39.879Z,24.17
2022-08-01T13:53:06.410Z,24.15
2022-08-01T13:55:35.316Z,24.17
2022-08-01T13:58:02.120Z,24.14
2022-08-01T14:00:28.754Z,24.12
2022-08-01T14:02:55.279Z,24.10
2022-08-01T14:05:21.818Z,24.11
2022-08-01T14:07:48.571Z,24.12
2022-08-01T14:10:19.961Z,24.20
2022-08-01T14:12:50.787Z,24.29
2022-08-01T14:15:36.477Z,24.33
2022-08-01T14:18:05.880Z,24.28
2022-08-01T14:20:33.301Z,24.25
2022-08-01T14:23:00.170Z,24.08
2022-08-01T14:26:00.826Z,24.03
2022-08-01T14:28:13.466Z,23.96
2022-08-01T14:30:42.159Z,23.91
2022-08-01T14:33:08.680Z,23.92
2022-08-01T14:36:01.548Z,23.96
2022-08-01T14:38:31.423Z,24.00
2022-08-01T14:41:00.607Z,23.99
2022-08-01T14:43:32.787Z,24.06
2022-08-01T14:46:00.463Z,24.06
2022-08-01T14:48:27.166Z,24.05
2022-08-01T14:50:53.891Z,24.05
2022-08-01T14:53:21.104Z,23.96
2022-08-01T14:55:47.779Z,23.92
2022-08-01T14:58:14.432Z,23.90
2022-08-01T15:00:41.196Z,23.87
2022-08-01T15:03:07.900Z,23.78
2022-08-01T15:05:34.450Z,23.71
2022-08-01T15:08:00.987Z,23.66
2022-08-01T15:10:28.309Z,23.61
2022-08-01T15:12:54.872Z,23.49
2022-08-01T15:15:22.098Z,23.43
2022-08-01T15:17:48.676Z,23.43
2022-08-01T15:20:15.259Z,23.38
2022-08-01T15:22:41.863Z,23.40
2022-08-01T15:25:08.502Z,23.40
2022-08-01T15:27:35.063Z,23.36
2022-08-01T15:30:02.008Z,23.37
2022-08-01T15:32:28.530Z,23.34
2022-08-01T15:34:55.268Z,23.34
2022-08-01T15:37:22.470Z,23.33
2022-08-01T15:39:49.888Z,23.34
2022-08-01T15:42:25.692Z,23.27
2022-08-01T15:44:53.543Z,23.26
2022-08-01T15:47:20.157Z,23.28
2022-08-01T15:49:46.730Z,23.24
2022-08-01T15:52:21.363Z,23.23
2022-08-01T15:54:50.273Z,23.18
2022-08-01T15:57:17.197Z,23.18
2022-08-01T15:59:43.957Z,23.20
2022-08-01T16:02:11.198Z,23.20
2022-08-01T16:04:38.765Z,23.24
2022-08-01T16:07:06.288Z,23.25
2022-08-01T16:09:33.090Z,23.20
2022-08-01T16:11:59.690Z,23.15
2022-08-01T16:14:26.310Z,23.10
2022-08-01T16:16:54.966Z,23.07
2022-08-01T16:19:21.920Z,23.01
2022-08-01T16:21:48.616Z,23.06
2022-08-01T16:24:15.833Z,23.12
2022-08-01T16:26:43.195Z,23.12
2022-08-01T16:29:09.770Z,23.14
2022-08-01T16:31:51.403Z,23.11
2022-08-01T16:34:22.961Z,23.13
2022-08-01T16:36:50.731Z,23.12
2022-08-01T16:39:22.597Z,23.11
2022-08-01T16:41:55.192Z,23.12
2022-08-01T16:44:33.344Z,23.14
2022-08-01T16:47:05.259Z,23.16
2022-08-01T16:49:32.404Z,23.04
2022-08-01T16:51:59.057Z,22.87
2022-08-01T16:54:26.422Z,22.84
2022-08-01T16:57:07.865Z,22.80
2022-08-01T16:59:40.927Z,22.83
2022-08-01T17:02:08.894Z,22.88
2022-08-01T17:04:38.839Z,22.82
2022-08-01T17:07:06.640Z,22.65
2022-08-01T17:09:34.321Z,22.62
2022-08-01T17:12:00.886Z,22.64
2022-08-01T17:14:28.738Z,22.72
2022-08-01T17:16:55.343Z,22.76
2022-08-01T17:19:32.760Z,22.80
2022-08-01T17:22:00.004Z,22.79
2022-08-01T17:24:26.552Z,22.79
2022-08-01T17:26:53.195Z,22.77
2022-08-01T17:29:19.688Z,22.75
2022-08-01T17:31:46.788Z,22.72
2022-08-01T17:34:13.383Z,22.67
2022-08-01T17:36:39.920Z,22.62
2022-08-01T17:39:08.804Z,22.54
2022-08-01T17:41:35.319Z,22.37
2022-08-01T17:44:02.170Z,22.31
2022-08-01T17:46:28.760Z,22.26
2022-08-01T17:48:55.302Z,22.22
2022-08-01T17:51:22.946Z,22.18
2022-08-01T17:53:56.692Z,22.16
2022-08-01T17:56:25.771Z,22.12
2022-08-01T17:58:52.564Z,22.08
2022-08-01T18:01:20.025Z,22.00
2022-08-01T18:03:46.992Z,21.93
2022-08-01T18:06:17.150Z,21.81
2022-08-01T18:08:47.104Z,21.69
2022-08-01T18:11:15.013Z,21.62
2022-08-01T18:13:41.648Z,21.52
2022-08-01T18:16:11.230Z,21.44
2022-08-01T18:18:39.134Z,21.37
2022-08-01T18:21:06.523Z,21.28
2022-08-01T18:23:34.072Z,21.21
2022-08-01T18:26:02.418Z,21.12
2022-08-01T18:28:35.100Z,21.03
2022-08-01T18:31:08.427Z,20.97
2022-08-01T18:33:36.468Z,20.87
2022-08-01T18:36:04.516Z,20.77
2022-08-01T18:38:35.193Z,20.69
2022-08-01T18:41:05.682Z,20.65
2022-08-01T18:43:32.287Z,20.63
2022-08-01T18:45:58.916Z,20.57
2022-08-01T18:48:25.461Z,20.54
2022-08-01T18:50:54.047Z,20.50
2022-08-01T18:53:22.347Z,20.43
2022-08-01T18:55:48.940Z,20.37
2022-08-01T18:58:15.478Z,20.32
2022-08-01T19:00:42.344Z,20.26
2022-08-01T19:03:09.824Z,20.20
2022-08-01T19:05:37.335Z,20.20
2022-08-01T19:08:07.618Z,20.18
2022-08-01T19:10:39.568Z,20.19
2022-08-01T19:13:07.845Z,20.22
2022-08-01T19:15:35.456Z,20.21
2022-08-01T19:18:03.114Z,20.19
2022-08-01T19:20:29.873Z,20.15
2022-08-01T19:22:56.726Z,20.10
2022-08-01T19:25:24.041Z,20.05
2022-08-01T19:27:50.891Z,20.03
2022-08-01T19:30:18.802Z,20.03
2022-08-01T19:32:47.555Z,19.96
2022-08-01T19:35:16.867Z,19.93
2022-08-01T19:37:47.126Z,19.89
2022-08-01T19:40:27.151Z,19.84
2022-08-01T19:42:54.744Z,19.80
2022-08-01T19:45:21.638Z,19.79
2022-08-01T19:47:51.809Z,19.77
2022-08-01T19:50:28.102Z,19.72
2022-08-01T19:52:57.649Z,19.74
2022-08-01T19:55:25.239Z,19.67
2022-08-01T19:58:17.279Z,19.63
2022-08-01T20:00:40.578Z,19.56
2022-08-01T20:03:09.648Z,19.49
2022-08-01T20:05:37.384Z,19.42
2022-08-01T20:08:06.618Z,19.37
2022-08-01T20:10:33.990Z,19.30
2022-08-01T20:13:01.397Z,19.24
2022-08-01T20:15:29.344Z,19.21
2022-08-01T20:17:59.395Z,19.13
2022-08-01T20:20:27.002Z,19.09
2022-08-01T20:22:57.421Z,19.09
2022-08-01T20:25:33.608Z,19.04
2022-08-01T20:28:09.536Z,18.96
2022-08-01T20:30:36.847Z,18.90
2022-08-01T20:33:06.480Z,18.84
2022-08-01T20:35:51.946Z,18.75
2022-08-01T20:38:22.848Z,18.64
2022-08-01T20:40:51.718Z,18.63
2022-08-01T20:43:20.710Z,18.56
2022-08-01T20:45:48.293Z,18.49
2022-08-01T20:48:17.382Z,18.43
2022-08-01T20:51:04.578Z,18.36
2022-08-01T20:53:42.471Z,18.33
2022-08-01T20:56:21.005Z,18.30
2022-08-01T20:59:09.834Z,18.24
2022-08-01T21:01:44.813Z,18.19
2022-08-01T21:04:23.266Z,18.16
2022-08-01T21:07:09.621Z,18.12
2022-08-01T21:09:39.205Z,18.12
2022-08-01T21:12:08.843Z,18.13
2022-08-01T21:14:49.393Z,18.13
2022-08-01T21:17:35.241Z,18.12
2022-08-01T21:20:06.512Z,18.10
2022-08-01T21:22:38.344Z,18.05
2022-08-01T21:25:08.107Z,18.04
2022-08-01T21:27:37.331Z,18.02
2022-08-01T21:30:08.239Z,18.04
2022-08-01T21:32:36.708Z,18.04
2022-08-01T21:35:05.615Z,18.02
2022-08-01T21:37:42.621Z,17.96
2022-08-01T21:40:10.578Z,17.98
2022-08-01T21:42:39.071Z,17.99
2022-08-01T21:45:06.743Z,17.98
2022-08-01T21:47:33.601Z,17.98
2022-08-01T21:50:04.917Z,17.96
2022-08-01T21:52:43.261Z,17.94
2022-08-01T21:55:15.842Z,17.95
2022-08-01T21:58:07.360Z,17.94
2022-08-01T22:00:37.045Z,17.92
2022-08-01T22:03:45.436Z,17.92
2022-08-01T22:06:16.821Z,17.89
2022-08-01T22:09:03.415Z,17.90
2022-08-01T22:11:33.980Z,17.92
2022-08-01T22:14:05.225Z,17.94
2022-08-01T22:16:33.978Z,17.94
2022-08-01T22:19:02.304Z,17.90
2022-08-01T22:21:29.927Z,17.87
2022-08-01T22:23:57.525Z,17.88
2022-08-01T22:26:29.123Z,17.83
2022-08-01T22:28:56.476Z,17.82
2022-08-01T22:31:23.740Z,17.78
2022-08-01T22:33:51.283Z,17.71
2022-08-01T22:36:20.379Z,17.69
2022-08-01T22:38:47.389Z,17.68
2022-08-01T22:41:19.296Z,17.67
2022-08-01T22:44:10.129Z,17.64
2022-08-01T22:47:00.171Z,17.64
2022-08-01T22:49:45.313Z,17.64
2022-08-01T22:52:18.126Z,17.65
2022-08-01T22:54:50.155Z,17.61
2022-08-01T22:57:25.362Z,17.55
2022-08-01T23:00:00.415Z,17.50
2022-08-01T23:02:30.705Z,17.50
2022-08-01T23:05:06.648Z,17.52
2022-08-01T23:07:44.175Z,17.48
2022-08-01T23:10:10.790Z,17.48
2022-08-01T23:12:38.992Z,17.50
2022-08-01T23:15:06.846Z,17.47
2022-08-01T23:17:33.378Z,17.47
2022-08-01T23:20:06.822Z,17.50
2022-08-01T23:22:35.563Z,17.48
2022-08-01T23:25:06.710Z,17.43
2022-08-01T23:28:03.823Z,17.43
2022-08-01T23:30:33.416Z,17.41
2022-08-01T23:33:00.465Z,17.36
2022-08-01T23:35:27.941Z,17.37
2022-08-01T23:38:02.231Z,17.38
2022-08-01T23:40:34.393Z,17.40
2022-08-01T23:43:03.024Z,17.44
2022-08-01T23:45:58.586Z,17.44
2022-08-01T23:48:16.411Z,17.46
2022-08-01T23:50:43.167Z,17.47
2022-08-01T23:53:09.750Z,17.49
2022-08-01T23:55:37.863Z,17.45
2022-08-01T23:58:06.705Z,17.43
